Camp Rogers, Georgia
Current Conditions -  °F | °C
As of 10:36 PM on Saturday 22 Nov 2014 (Local Time) from KLSF Reporting Station
Light Rain Light Rain  
Wind Chill: 57°   Ceiling: 2400
Heat Index: 57°   Visibility: 10mi
Dew Point: 52°   Wind: 7mph
Humidity: 82%   Direction: 100°E
Pressure: 30.16"   Gusts: NA
Location:  32.373°N, 84.7961°W
Report Text: KLSF 230336Z AUTO 10006KT 10SM -RA OVC024 14/11 A3016 RMK AO2
Loading
Personal Weather Stations






























Interactive Weather Map New forecast layout! Learn more

10-Day Weather Forecast

Advertisements
Track Severe Weather on mobile